sensor_id;sensor_type;location;lat;lon;timestamp;temperature;humidity
46438;DHT22;32137;48.728;9.142;2023-02-26T00:02:07;1.30;99.90
46438;DHT22;32137;48.728;9.142;2023-02-26T00:04:35;1.30;99.90
46438;DHT22;32137;48.728;9.142;2023-02-26T00:07:00;1.30;99.90
46438;DHT22;32137;48.728;9.142;2023-02-26T00:09:26;1.20;99.90
46438;DHT22;32137;48.728;9.142;2023-02-26T00:11:52;1.20;99.90
46438;DHT22;32137;48.728;9.142;2023-02-26T00:14:18;1.10;99.90
46438;DHT22;32137;48.728;9.142;2023-02-26T00:16:49;1.10;99.90
46438;DHT22;32137;48.728;9.142;2023-02-26T00:19:15;1.10;99.90
46438;DHT22;32137;48.728;9.142;2023-02-26T00:24:15;1.00;99.90
46438;DHT22;32137;48.728;9.142;2023-02-26T00:26:40;1.00;99.90
46438;DHT22;32137;48.728;9.142;2023-02-26T00:29:06;0.90;99.90
46438;DHT22;32137;48.728;9.142;2023-02-26T00:31:32;0.90;99.90
46438;DHT22;32137;48.728;9.142;2023-02-26T00:33:57;0.90;99.90
46438;DHT22;32137;48.728;9.142;2023-02-26T00:36:36;0.80;99.90
46438;DHT22;32137;48.728;9.142;2023-02-26T00:39:36;0.80;99.90
46438;DHT22;32137;48.728;9.142;2023-02-26T00:42:05;0.70;99.90
46438;DHT22;32137;48.728;9.142;2023-02-26T00:44:31;0.70;99.90
46438;DHT22;32137;48.728;9.142;2023-02-26T00:52:18;0.50;99.90
46438;DHT22;32137;48.728;9.142;2023-02-26T00:54:47;0.50;99.90
46438;DHT22;32137;48.728;9.142;2023-02-26T00:57:12;0.60;99.90
46438;DHT22;32137;48.728;9.142;2023-02-26T00:59:38;0.60;99.90
46438;DHT22;32137;48.728;9.142;2023-02-26T01:02:03;0.60;99.90
46438;DHT22;32137;48.728;9.142;2023-02-26T01:04:29;0.50;99.90
46438;DHT22;32137;48.728;9.142;2023-02-26T01:06:56;0.50;99.90
46438;DHT22;32137;48.728;9.142;2023-02-26T01:11:52;0.50;99.90
46438;DHT22;32137;48.728;9.142;2023-02-26T01:14:18;0.50;99.90
46438;DHT22;32137;48.728;9.142;2023-02-26T01:17:07;0.40;99.90
46438;DHT22;32137;48.728;9.142;2023-02-26T01:19:47;0.50;99.90
46438;DHT22;32137;48.728;9.142;2023-02-26T01:24:54;0.50;99.90
46438;DHT22;32137;48.728;9.142;2023-02-26T01:27:20;0.50;99.90
46438;DHT22;32137;48.728;9.142;2023-02-26T01:29:46;0.50;99.90
46438;DHT22;32137;48.728;9.142;2023-02-26T01:32:21;0.50;99.90
46438;DHT22;32137;48.728;9.142;2023-02-26T01:34:54;0.40;99.90
46438;DHT22;32137;48.728;9.142;2023-02-26T01:37:30;0.40;99.90
46438;DHT22;32137;48.728;9.142;2023-02-26T01:40:34;0.40;99.90
46438;DHT22;32137;48.728;9.142;2023-02-26T01:43:10;0.30;99.90
46438;DHT22;32137;48.728;9.142;2023-02-26T01:51:12;0.10;99.90
46438;DHT22;32137;48.728;9.142;2023-02-26T01:53:38;0.00;99.90
46438;DHT22;32137;48.728;9.142;2023-02-26T01:56:10;0.00;99.90
46438;DHT22;32137;48.728;9.142;2023-02-26T01:58:37;0.00;99.90
46438;DHT22;32137;48.728;9.142;2023-02-26T02:01:04;0.00;99.90
46438;DHT22;32137;48.728;9.142;2023-02-26T02:03:32;-0.10;99.90
46438;DHT22;32137;48.728;9.142;2023-02-26T02:06:14;-0.10;99.90
46438;DHT22;32137;48.728;9.142;2023-02-26T02:08:40;-0.20;99.90
46438;DHT22;32137;48.728;9.142;2023-02-26T02:11:08;-0.20;99.90
46438;DHT22;32137;48.728;9.142;2023-02-26T02:24:37;-0.30;99.90
46438;DHT22;32137;48.728;9.142;2023-02-26T02:27:21;-0.30;99.90
46438;DHT22;32137;48.728;9.142;2023-02-26T02:35:12;-0.40;99.90
46438;DHT22;32137;48.728;9.142;2023-02-26T02:37:50;-0.50;99.90
46438;DHT22;32137;48.728;9.142;2023-02-26T02:40:28;-0.50;99.90
46438;DHT22;32137;48.728;9.142;2023-02-26T02:42:56;-0.50;99.90
46438;DHT22;32137;48.728;9.142;2023-02-26T02:45:35;-0.50;99.90
46438;DHT22;32137;48.728;9.142;2023-02-26T02:48:58;-0.50;99.90
46438;DHT22;32137;48.728;9.142;2023-02-26T02:51:00;-0.60;99.90
46438;DHT22;32137;48.728;9.142;2023-02-26T02:53:36;-0.60;99.90
46438;DHT22;32137;48.728;9.142;2023-02-26T02:58:41;-0.70;99.90
46438;DHT22;32137;48.728;9.142;2023-02-26T03:01:11;-0.60;99.90
46438;DHT22;32137;48.728;9.142;2023-02-26T03:06:14;-0.70;99.90
46438;DHT22;32137;48.728;9.142;2023-02-26T03:08:42;-0.70;99.90
46438;DHT22;32137;48.728;9.142;2023-02-26T03:11:09;-0.70;99.90
46438;DHT22;32137;48.728;9.142;2023-02-26T03:13:35;-0.70;99.90
46438;DHT22;32137;48.728;9.142;2023-02-26T03:24:13;-0.80;99.90
46438;DHT22;32137;48.728;9.142;2023-02-26T03:26:46;-0.80;99.90
46438;DHT22;32137;48.728;9.142;2023-02-26T03:32:04;-0.90;99.90
46438;DHT22;32137;48.728;9.142;2023-02-26T03:34:40;-0.90;99.90
46438;DHT22;32137;48.728;9.142;2023-02-26T03:37:25;-0.90;99.90
46438;DHT22;32137;48.728;9.142;2023-02-26T03:39:56;-0.90;99.90
46438;DHT22;32137;48.728;9.142;2023-02-26T03:42:29;-0.90;99.90
46438;DHT22;32137;48.728;9.142;2023-02-26T03:45:00;-0.90;99.90
46438;DHT22;32137;48.728;9.142;2023-02-26T03:47:28;-0.90;99.90
46438;DHT22;32137;48.728;9.142;2023-02-26T03:52:25;-0.90;99.90
46438;DHT22;32137;48.728;9.142;2023-02-26T03:55:00;-1.00;99.90
46438;DHT22;32137;48.728;9.142;2023-02-26T03:57:26;-1.00;99.90
46438;DHT22;32137;48.728;9.142;2023-02-26T03:59:52;-1.00;99.90
46438;DHT22;32137;48.728;9.142;2023-02-26T04:02:29;-1.10;99.90
46438;DHT22;32137;48.728;9.142;2023-02-26T04:05:07;-1.10;99.90
46438;DHT22;32137;48.728;9.142;2023-02-26T04:07:34;-1.10;99.90
46438;DHT22;32137;48.728;9.142;2023-02-26T04:10:00;-1.10;99.90
46438;DHT22;32137;48.728;9.142;2023-02-26T04:12:27;-1.10;99.90
46438;DHT22;32137;48.728;9.142;2023-02-26T04:14:54;-1.10;99.90
46438;DHT22;32137;48.728;9.142;2023-02-26T04:17:20;-1.20;99.90
46438;DHT22;32137;48.728;9.142;2023-02-26T04:19:46;-1.20;99.90
46438;DHT22;32137;48.728;9.142;2023-02-26T04:22:11;-1.20;99.90
46438;DHT22;32137;48.728;9.142;2023-02-26T04:24:37;-1.20;99.90
46438;DHT22;32137;48.728;9.142;2023-02-26T04:27:03;-1.20;99.90
46438;DHT22;32137;48.728;9.142;2023-02-26T04:29:29;-1.20;99.90
46438;DHT22;32137;48.728;9.142;2023-02-26T04:31:54;-1.20;99.90
46438;DHT22;32137;48.728;9.142;2023-02-26T04:34:20;-1.30;99.90
46438;DHT22;32137;48.728;9.142;2023-02-26T04:36:45;-1.30;99.90
46438;DHT22;32137;48.728;9.142;2023-02-26T04:39:11;-1.30;99.90
46438;DHT22;32137;48.728;9.142;2023-02-26T04:41:37;-1.30;99.90
46438;DHT22;32137;48.728;9.142;2023-02-26T04:44:03;-1.40;99.90
46438;DHT22;32137;48.728;9.142;2023-02-26T04:46:29;-1.40;99.90
46438;DHT22;32137;48.728;9.142;2023-02-26T04:48:55;-1.40;99.90
46438;DHT22;32137;48.728;9.142;2023-02-26T04:51:20;-1.40;99.90
46438;DHT22;32137;48.728;9.142;2023-02-26T04:53:46;-1.40;99.90
46438;DHT22;32137;48.728;9.142;2023-02-26T04:56:11;-1.40;99.90
46438;DHT22;32137;48.728;9.142;2023-02-26T04:58:37;-1.40;99.90
46438;DHT22;32137;48.728;9.142;2023-02-26T05:01:03;-1.40;99.90
46438;DHT22;32137;48.728;9.142;2023-02-26T05:03:28;-1.50;99.90
46438;DHT22;32137;48.728;9.142;2023-02-26T05:05:54;-1.50;99.90
46438;DHT22;32137;48.728;9.142;2023-02-26T05:08:20;-1.50;99.90
46438;DHT22;32137;48.728;9.142;2023-02-26T05:10:45;-1.50;99.90
46438;DHT22;32137;48.728;9.142;2023-02-26T05:13:11;-1.50;99.90
46438;DHT22;32137;48.728;9.142;2023-02-26T05:15:37;-1.40;99.90
46438;DHT22;32137;48.728;9.142;2023-02-26T05:18:02;-1.40;99.90
46438;DHT22;32137;48.728;9.142;2023-02-26T05:20:28;-1.40;99.90
46438;DHT22;32137;48.728;9.142;2023-02-26T05:22:53;-1.40;99.90
46438;DHT22;32137;48.728;9.142;2023-02-26T05:25:19;-1.50;99.90
46438;DHT22;32137;48.728;9.142;2023-02-26T05:27:44;-1.50;99.90
46438;DHT22;32137;48.728;9.142;2023-02-26T05:30:13;-1.50;99.90
46438;DHT22;32137;48.728;9.142;2023-02-26T05:32:39;-1.60;99.90
46438;DHT22;32137;48.728;9.142;2023-02-26T05:35:05;-1.60;99.90
46438;DHT22;32137;48.728;9.142;2023-02-26T05:37:31;-1.60;99.90
46438;DHT22;32137;48.728;9.142;2023-02-26T05:39:56;-1.60;99.90
46438;DHT22;32137;48.728;9.142;2023-02-26T05:42:22;-1.60;99.90
46438;DHT22;32137;48.728;9.142;2023-02-26T05:44:47;-1.60;99.90
46438;DHT22;32137;48.728;9.142;2023-02-26T05:47:13;-1.60;99.90
46438;DHT22;32137;48.728;9.142;2023-02-26T05:49:38;-1.70;99.90
46438;DHT22;32137;48.728;9.142;2023-02-26T05:52:04;-1.70;99.90
46438;DHT22;32137;48.728;9.142;2023-02-26T05:54:30;-1.70;99.90
46438;DHT22;32137;48.728;9.142;2023-02-26T05:56:55;-1.70;99.90
46438;DHT22;32137;48.728;9.142;2023-02-26T05:59:21;-1.80;99.90
46438;DHT22;32137;48.728;9.142;2023-02-26T06:01:46;-1.80;99.90
46438;DHT22;32137;48.728;9.142;2023-02-26T06:04:12;-1.80;99.90
46438;DHT22;32137;48.728;9.142;2023-02-26T06:06:37;-1.80;99.90
46438;DHT22;32137;48.728;9.142;2023-02-26T06:09:03;-1.80;99.90
46438;DHT22;32137;48.728;9.142;2023-02-26T06:11:29;-1.80;99.90
46438;DHT22;32137;48.728;9.142;2023-02-26T06:13:55;-1.80;99.90
46438;DHT22;32137;48.728;9.142;2023-02-26T06:16:21;-1.80;99.90
46438;DHT22;32137;48.728;9.142;2023-02-26T06:18:47;-1.80;99.90
46438;DHT22;32137;48.728;9.142;2023-02-26T06:21:15;-1.80;99.90
46438;DHT22;32137;48.728;9.142;2023-02-26T06:23:41;-1.80;99.90
46438;DHT22;32137;48.728;9.142;2023-02-26T06:26:07;-1.80;99.90
46438;DHT22;32137;48.728;9.142;2023-02-26T06:28:32;-1.80;99.90
46438;DHT22;32137;48.728;9.142;2023-02-26T06:30:58;-1.80;99.90
46438;DHT22;32137;48.728;9.142;2023-02-26T06:33:24;-1.80;99.90
46438;DHT22;32137;48.728;9.142;2023-02-26T06:35:50;-1.80;99.90
46438;DHT22;32137;48.728;9.142;2023-02-26T06:38:16;-1.80;99.90
46438;DHT22;32137;48.728;9.142;2023-02-26T06:40:42;-1.80;99.90
46438;DHT22;32137;48.728;9.142;2023-02-26T06:43:08;-1.80;99.90
46438;DHT22;32137;48.728;9.142;2023-02-26T06:45:34;-1.80;99.90
46438;DHT22;32137;48.728;9.142;2023-02-26T06:47:59;-1.80;99.90
46438;DHT22;32137;48.728;9.142;2023-02-26T06:50:25;-1.70;99.90
46438;DHT22;32137;48.728;9.142;2023-02-26T06:52:50;-1.70;99.90
46438;DHT22;32137;48.728;9.142;2023-02-26T06:55:16;-1.70;99.90
46438;DHT22;32137;48.728;9.142;2023-02-26T06:57:42;-1.70;99.90
46438;DHT22;32137;48.728;9.142;2023-02-26T07:00:08;-1.70;99.90
46438;DHT22;32137;48.728;9.142;2023-02-26T07:02:34;-1.70;99.90
46438;DHT22;32137;48.728;9.142;2023-02-26T07:05:00;-1.70;99.90
46438;DHT22;32137;48.728;9.142;2023-02-26T07:07:25;-1.70;99.90
46438;DHT22;32137;48.728;9.142;2023-02-26T07:09:51;-1.70;99.90
46438;DHT22;32137;48.728;9.142;2023-02-26T07:12:16;-1.70;99.90
46438;DHT22;32137;48.728;9.142;2023-02-26T07:14:42;-1.60;99.90
46438;DHT22;32137;48.728;9.142;2023-02-26T07:17:08;-1.60;99.90
46438;DHT22;32137;48.728;9.142;2023-02-26T07:19:33;-1.60;99.90
46438;DHT22;32137;48.728;9.142;2023-02-26T07:21:59;-1.60;99.90
46438;DHT22;32137;48.728;9.142;2023-02-26T07:24:25;-1.50;99.90
46438;DHT22;32137;48.728;9.142;2023-02-26T07:26:50;-1.50;99.90
46438;DHT22;32137;48.728;9.142;2023-02-26T07:29:16;-1.40;99.90
46438;DHT22;32137;48.728;9.142;2023-02-26T07:31:41;-1.40;99.90
46438;DHT22;32137;48.728;9.142;2023-02-26T07:34:07;-1.30;99.90
46438;DHT22;32137;48.728;9.142;2023-02-26T07:36:32;-1.10;99.90
46438;DHT22;32137;48.728;9.142;2023-02-26T07:38:58;-1.00;99.90
46438;DHT22;32137;48.728;9.142;2023-02-26T07:41:23;-0.90;99.90
46438;DHT22;32137;48.728;9.142;2023-02-26T07:43:49;-0.90;99.90
46438;DHT22;32137;48.728;9.142;2023-02-26T07:46:14;-0.90;99.90
46438;DHT22;32137;48.728;9.142;2023-02-26T07:48:40;-0.90;99.90
46438;DHT22;32137;48.728;9.142;2023-02-26T07:51:06;-1.00;99.90
46438;DHT22;32137;48.728;9.142;2023-02-26T07:53:33;-1.00;99.90
46438;DHT22;32137;48.728;9.142;2023-02-26T07:55:59;-1.10;99.90
46438;DHT22;32137;48.728;9.142;2023-02-26T07:58:24;-1.10;99.90
46438;DHT22;32137;48.728;9.142;2023-02-26T08:00:50;-1.10;99.90
46438;DHT22;32137;48.728;9.142;2023-02-26T08:03:17;-1.10;99.90
46438;DHT22;32137;48.728;9.142;2023-02-26T08:05:43;-1.00;99.90
46438;DHT22;32137;48.728;9.142;2023-02-26T08:08:09;-0.90;99.90
46438;DHT22;32137;48.728;9.142;2023-02-26T08:10:34;-0.70;99.90
46438;DHT22;32137;48.728;9.142;2023-02-26T08:13:00;-0.60;99.90
46438;DHT22;32137;48.728;9.142;2023-02-26T08:15:26;-0.50;99.90
46438;DHT22;32137;48.728;9.142;2023-02-26T08:17:52;-0.50;1.00
46438;DHT22;32137;48.728;9.142;2023-02-26T08:20:18;-0.50;1.00
46438;DHT22;32137;48.728;9.142;2023-02-26T08:22:44;-0.50;1.00
46438;DHT22;32137;48.728;9.142;2023-02-26T08:25:09;-0.60;99.90
46438;DHT22;32137;48.728;9.142;2023-02-26T08:27:35;-0.60;99.90
46438;DHT22;32137;48.728;9.142;2023-02-26T08:30:01;-0.60;99.90
46438;DHT22;32137;48.728;9.142;2023-02-26T08:32:27;-0.50;99.90
46438;DHT22;32137;48.728;9.142;2023-02-26T08:34:52;-0.60;99.90
46438;DHT22;32137;48.728;9.142;2023-02-26T08:37:18;-0.50;99.90
46438;DHT22;32137;48.728;9.142;2023-02-26T08:39:46;-0.50;99.90
46438;DHT22;32137;48.728;9.142;2023-02-26T08:42:11;-0.20;99.90
46438;DHT22;32137;48.728;9.142;2023-02-26T08:44:41;-0.10;99.90
46438;DHT22;32137;48.728;9.142;2023-02-26T08:47:06;0.10;99.90
46438;DHT22;32137;48.728;9.142;2023-02-26T08:49:32;0.30;99.90
46438;DHT22;32137;48.728;9.142;2023-02-26T08:51:57;0.40;99.90
46438;DHT22;32137;48.728;9.142;2023-02-26T08:54:23;0.30;99.90
46438;DHT22;32137;48.728;9.142;2023-02-26T08:56:49;0.30;99.90
46438;DHT22;32137;48.728;9.142;2023-02-26T08:59:14;0.20;99.90
46438;DHT22;32137;48.728;9.142;2023-02-26T09:01:40;0.20;99.90
46438;DHT22;32137;48.728;9.142;2023-02-26T09:04:06;0.20;99.90
46438;DHT22;32137;48.728;9.142;2023-02-26T09:06:32;0.20;99.90
46438;DHT22;32137;48.728;9.142;2023-02-26T09:08:57;0.20;99.90
46438;DHT22;32137;48.728;9.142;2023-02-26T09:11:23;0.20;99.90
46438;DHT22;32137;48.728;9.142;2023-02-26T09:13:48;0.20;99.90
46438;DHT22;32137;48.728;9.142;2023-02-26T09:16:14;0.20;99.90
46438;DHT22;32137;48.728;9.142;2023-02-26T09:18:39;0.40;99.90
46438;DHT22;32137;48.728;9.142;2023-02-26T09:21:05;0.50;99.90
46438;DHT22;32137;48.728;9.142;2023-02-26T09:23:30;0.40;99.90
46438;DHT22;32137;48.728;9.142;2023-02-26T09:25:56;0.40;99.90
46438;DHT22;32137;48.728;9.142;2023-02-26T09:28:23;0.40;99.90
46438;DHT22;32137;48.728;9.142;2023-02-26T09:30:53;0.40;99.90
46438;DHT22;32137;48.728;9.142;2023-02-26T09:33:19;0.40;99.90
46438;DHT22;32137;48.728;9.142;2023-02-26T09:35:47;0.30;99.90
46438;DHT22;32137;48.728;9.142;2023-02-26T09:38:13;0.30;99.90
46438;DHT22;32137;48.728;9.142;2023-02-26T09:40:53;0.30;99.90
46438;DHT22;32137;48.728;9.142;2023-02-26T09:48:47;0.30;99.90
46438;DHT22;32137;48.728;9.142;2023-02-26T09:51:18;0.30;99.90
46438;DHT22;32137;48.728;9.142;2023-02-26T09:53:45;0.30;99.90
46438;DHT22;32137;48.728;9.142;2023-02-26T09:56:16;0.40;99.90
46438;DHT22;32137;48.728;9.142;2023-02-26T09:58:43;0.40;99.90
46438;DHT22;32137;48.728;9.142;2023-02-26T10:01:30;0.40;99.90
46438;DHT22;32137;48.728;9.142;2023-02-26T10:04:20;0.30;99.90
46438;DHT22;32137;48.728;9.142;2023-02-26T10:12:11;0.40;99.90
46438;DHT22;32137;48.728;9.142;2023-02-26T10:15:03;0.40;99.90
46438;DHT22;32137;48.728;9.142;2023-02-26T10:20:42;0.40;99.90
46438;DHT22;32137;48.728;9.142;2023-02-26T10:23:24;0.40;99.90
46438;DHT22;32137;48.728;9.142;2023-02-26T10:26:03;0.30;99.90
46438;DHT22;32137;48.728;9.142;2023-02-26T10:31:34;0.20;99.90
46438;DHT22;32137;48.728;9.142;2023-02-26T10:37:22;0.20;99.90
46438;DHT22;32137;48.728;9.142;2023-02-26T10:39:55;0.20;99.90
46438;DHT22;32137;48.728;9.142;2023-02-26T10:42:26;0.20;99.90
46438;DHT22;32137;48.728;9.142;2023-02-26T10:45:16;0.20;99.90
46438;DHT22;32137;48.728;9.142;2023-02-26T10:48:08;0.20;99.90
46438;DHT22;32137;48.728;9.142;2023-02-26T10:50:47;0.20;99.90
46438;DHT22;32137;48.728;9.142;2023-02-26T10:53:12;0.20;99.90
46438;DHT22;32137;48.728;9.142;2023-02-26T10:55:42;0.20;99.90
46438;DHT22;32137;48.728;9.142;2023-02-26T10:58:16;0.30;99.90
46438;DHT22;32137;48.728;9.142;2023-02-26T11:00:45;0.30;99.90
46438;DHT22;32137;48.728;9.142;2023-02-26T11:03:18;0.40;99.90
46438;DHT22;32137;48.728;9.142;2023-02-26T11:05:45;0.50;99.90
46438;DHT22;32137;48.728;9.142;2023-02-26T11:08:27;0.60;99.90
46438;DHT22;32137;48.728;9.142;2023-02-26T11:11:02;0.70;99.90
46438;DHT22;32137;48.728;9.142;2023-02-26T11:13:31;0.90;99.90
46438;DHT22;32137;48.728;9.142;2023-02-26T11:16:01;1.10;99.90
46438;DHT22;32137;48.728;9.142;2023-02-26T11:18:47;1.10;99.90
46438;DHT22;32137;48.728;9.142;2023-02-26T11:21:20;1.20;99.90
46438;DHT22;32137;48.728;9.142;2023-02-26T11:23:47;1.10;99.90
46438;DHT22;32137;48.728;9.142;2023-02-26T11:26:17;1.20;99.90
46438;DHT22;32137;48.728;9.142;2023-02-26T11:28:48;1.10;99.90
46438;DHT22;32137;48.728;9.142;2023-02-26T11:31:19;1.20;99.90
46438;DHT22;32137;48.728;9.142;2023-02-26T11:33:52;1.30;99.90
46438;DHT22;32137;48.728;9.142;2023-02-26T11:36:24;1.20;99.90
46438;DHT22;32137;48.728;9.142;2023-02-26T11:39:04;1.20;99.90
46438;DHT22;32137;48.728;9.142;2023-02-26T11:41:36;1.10;99.90
46438;DHT22;32137;48.728;9.142;2023-02-26T11:44:13;1.00;99.90
46438;DHT22;32137;48.728;9.142;2023-02-26T11:47:01;0.90;99.90
46438;DHT22;32137;48.728;9.142;2023-02-26T11:49:28;0.80;99.90
46438;DHT22;32137;48.728;9.142;2023-02-26T11:54:38;0.80;99.90
46438;DHT22;32137;48.728;9.142;2023-02-26T11:57:20;0.80;99.90
46438;DHT22;32137;48.728;9.142;2023-02-26T11:59:51;0.80;99.90
46438;DHT22;32137;48.728;9.142;2023-02-26T12:02:22;0.80;99.90
46438;DHT22;32137;48.728;9.142;2023-02-26T12:04:51;0.90;99.90
46438;DHT22;32137;48.728;9.142;2023-02-26T12:07:18;0.90;99.90
46438;DHT22;32137;48.728;9.142;2023-02-26T12:09:45;0.90;99.90
46438;DHT22;32137;48.728;9.142;2023-02-26T12:15:12;1.00;99.90
46438;DHT22;32137;48.728;9.142;2023-02-26T12:18:02;0.90;99.90
46438;DHT22;32137;48.728;9.142;2023-02-26T12:20:39;0.90;99.90
46438;DHT22;32137;48.728;9.142;2023-02-26T12:26:28;0.90;99.90
46438;DHT22;32137;48.728;9.142;2023-02-26T12:58:55;1.10;99.90
46438;DHT22;32137;48.728;9.142;2023-02-26T13:06:56;1.90;99.90
46438;DHT22;32137;48.728;9.142;2023-02-26T13:09:46;1.80;99.90
46438;DHT22;32137;48.728;9.142;2023-02-26T13:12:51;1.60;99.90
46438;DHT22;32137;48.728;9.142;2023-02-26T13:20:27;1.40;99.90
46438;DHT22;32137;48.728;9.142;2023-02-26T13:22:59;1.40;99.90
46438;DHT22;32137;48.728;9.142;2023-02-26T13:25:48;1.30;99.90
46438;DHT22;32137;48.728;9.142;2023-02-26T13:30:51;1.30;99.90
46438;DHT22;32137;48.728;9.142;2023-02-26T13:33:22;1.30;99.90
46438;DHT22;32137;48.728;9.142;2023-02-26T13:35:49;1.20;99.90
46438;DHT22;32137;48.728;9.142;2023-02-26T13:38:27;1.20;99.90
46438;DHT22;32137;48.728;9.142;2023-02-26T13:41:14;1.20;99.90
46438;DHT22;32137;48.728;9.142;2023-02-26T13:44:04;1.20;99.90
46438;DHT22;32137;48.728;9.142;2023-02-26T13:49:36;1.30;99.90
46438;DHT22;32137;48.728;9.142;2023-02-26T13:52:22;1.40;99.90
46438;DHT22;32137;48.728;9.142;2023-02-26T13:54:48;1.50;99.90
46438;DHT22;32137;48.728;9.142;2023-02-26T13:59:59;2.20;99.90
46438;DHT22;32137;48.728;9.142;2023-02-26T14:02:51;2.40;99.90
46438;DHT22;32137;48.728;9.142;2023-02-26T14:05:53;2.50;99.90
46438;DHT22;32137;48.728;9.142;2023-02-26T14:08:42;2.40;99.90
46438;DHT22;32137;48.728;9.142;2023-02-26T14:14:11;2.70;99.90
46438;DHT22;32137;48.728;9.142;2023-02-26T14:16:43;2.80;99.90
46438;DHT22;32137;48.728;9.142;2023-02-26T14:19:21;2.80;99.90
46438;DHT22;32137;48.728;9.142;2023-02-26T14:24:35;2.60;99.90
46438;DHT22;32137;48.728;9.142;2023-02-26T14:29:41;2.30;99.90
46438;DHT22;32137;48.728;9.142;2023-02-26T14:34:55;2.20;99.90
46438;DHT22;32137;48.728;9.142;2023-02-26T14:37:25;2.10;99.90
46438;DHT22;32137;48.728;9.142;2023-02-26T14:39:56;2.30;99.90
46438;DHT22;32137;48.728;9.142;2023-02-26T14:42:59;2.50;99.90
46438;DHT22;32137;48.728;9.142;2023-02-26T14:47:56;2.60;99.90
46438;DHT22;32137;48.728;9.142;2023-02-26T14:50:23;2.50;99.90
46438;DHT22;32137;48.728;9.142;2023-02-26T14:53:12;2.60;99.90
46438;DHT22;32137;48.728;9.142;2023-02-26T15:07:15;2.60;99.90
46438;DHT22;32137;48.728;9.142;2023-02-26T15:09:54;2.50;99.90
46438;DHT22;32137;48.728;9.142;2023-02-26T15:21:42;2.40;99.90
46438;DHT22;32137;48.728;9.142;2023-02-26T15:24:11;2.40;99.90
46438;DHT22;32137;48.728;9.142;2023-02-26T15:26:46;2.40;99.90
46438;DHT22;32137;48.728;9.142;2023-02-26T15:29:14;2.50;99.90
46438;DHT22;32137;48.728;9.142;2023-02-26T15:31:50;2.50;99.90
46438;DHT22;32137;48.728;9.142;2023-02-26T15:34:18;2.40;99.90
46438;DHT22;32137;48.728;9.142;2023-02-26T15:36:46;2.20;99.90
46438;DHT22;32137;48.728;9.142;2023-02-26T15:39:15;2.00;99.90
46438;DHT22;32137;48.728;9.142;2023-02-26T15:41:42;1.90;99.90
46438;DHT22;32137;48.728;9.142;2023-02-26T15:44:12;1.90;99.90
46438;DHT22;32137;48.728;9.142;2023-02-26T15:46:42;2.00;99.90
46438;DHT22;32137;48.728;9.142;2023-02-26T15:49:14;2.10;99.90
46438;DHT22;32137;48.728;9.142;2023-02-26T15:51:42;2.30;99.90
46438;DHT22;32137;48.728;9.142;2023-02-26T15:54:18;2.40;99.90
46438;DHT22;32137;48.728;9.142;2023-02-26T15:56:45;2.40;99.90
46438;DHT22;32137;48.728;9.142;2023-02-26T15:59:32;2.30;99.90
46438;DHT22;32137;48.728;9.142;2023-02-26T16:02:01;2.10;99.90
46438;DHT22;32137;48.728;9.142;2023-02-26T16:04:27;2.00;99.90
46438;DHT22;32137;48.728;9.142;2023-02-26T16:06:54;1.90;99.90
46438;DHT22;32137;48.728;9.142;2023-02-26T16:09:33;1.80;99.90
46438;DHT22;32137;48.728;9.142;2023-02-26T16:12:11;1.70;99.90
46438;DHT22;32137;48.728;9.142;2023-02-26T16:14:39;1.60;99.90
46438;DHT22;32137;48.728;9.142;2023-02-26T16:17:11;1.60;99.90
46438;DHT22;32137;48.728;9.142;2023-02-26T16:19:43;1.60;99.90
46438;DHT22;32137;48.728;9.142;2023-02-26T16:25:17;1.50;99.90
46438;DHT22;32137;48.728;9.142;2023-02-26T16:27:48;1.50;99.90
46438;DHT22;32137;48.728;9.142;2023-02-26T16:30:19;1.50;99.90
46438;DHT22;32137;48.728;9.142;2023-02-26T16:32:50;1.40;99.90
46438;DHT22;32137;48.728;9.142;2023-02-26T16:35:20;1.30;99.90
46438;DHT22;32137;48.728;9.142;2023-02-26T16:37:52;1.20;99.90
46438;DHT22;32137;48.728;9.142;2023-02-26T16:40:27;1.20;99.90
46438;DHT22;32137;48.728;9.142;2023-02-26T16:43:03;1.10;99.90
46438;DHT22;32137;48.728;9.142;2023-02-26T16:48:04;1.10;99.90
46438;DHT22;32137;48.728;9.142;2023-02-26T16:50:33;1.00;99.90
46438;DHT22;32137;48.728;9.142;2023-02-26T16:53:17;1.00;99.90
46438;DHT22;32137;48.728;9.142;2023-02-26T16:55:52;0.90;99.90
46438;DHT22;32137;48.728;9.142;2023-02-26T16:58:20;0.90;99.90
46438;DHT22;32137;48.728;9.142;2023-02-26T17:00:52;0.90;99.90
46438;DHT22;32137;48.728;9.142;2023-02-26T17:03:23;0.90;99.90
46438;DHT22;32137;48.728;9.142;2023-02-26T17:05:53;0.90;99.90
46438;DHT22;32137;48.728;9.142;2023-02-26T17:08:21;0.90;99.90
46438;DHT22;32137;48.728;9.142;2023-02-26T17:10:58;0.90;99.90
46438;DHT22;32137;48.728;9.142;2023-02-26T17:13:26;0.90;99.90
46438;DHT22;32137;48.728;9.142;2023-02-26T17:15:58;0.90;99.90
46438;DHT22;32137;48.728;9.142;2023-02-26T17:18:23;1.00;99.90
46438;DHT22;32137;48.728;9.142;2023-02-26T17:20:50;0.90;99.90
46438;DHT22;32137;48.728;9.142;2023-02-26T17:23:16;0.90;99.90
46438;DHT22;32137;48.728;9.142;2023-02-26T17:25:47;0.90;99.90
46438;DHT22;32137;48.728;9.142;2023-02-26T17:28:25;0.90;99.90
46438;DHT22;32137;48.728;9.142;2023-02-26T17:30:52;0.90;99.90
46438;DHT22;32137;48.728;9.142;2023-02-26T17:33:19;0.90;99.90
46438;DHT22;32137;48.728;9.142;2023-02-26T17:35:45;0.80;99.90
46438;DHT22;32137;48.728;9.142;2023-02-26T17:38:11;0.80;99.90
46438;DHT22;32137;48.728;9.142;2023-02-26T17:40:38;0.70;99.90
46438;DHT22;32137;48.728;9.142;2023-02-26T17:43:05;0.60;99.90
46438;DHT22;32137;48.728;9.142;2023-02-26T17:45:31;0.60;99.90
46438;DHT22;32137;48.728;9.142;2023-02-26T17:47:57;0.60;99.90
46438;DHT22;32137;48.728;9.142;2023-02-26T17:50:46;0.50;99.90
46438;DHT22;32137;48.728;9.142;2023-02-26T17:53:13;0.40;99.90
46438;DHT22;32137;48.728;9.142;2023-02-26T17:55:39;0.40;99.90
46438;DHT22;32137;48.728;9.142;2023-02-26T17:58:08;0.40;99.90
46438;DHT22;32137;48.728;9.142;2023-02-26T18:00:37;0.40;99.90
46438;DHT22;32137;48.728;9.142;2023-02-26T18:03:06;0.40;99.90
46438;DHT22;32137;48.728;9.142;2023-02-26T18:05:33;0.30;99.90
46438;DHT22;32137;48.728;9.142;2023-02-26T18:08:09;0.20;99.90
46438;DHT22;32137;48.728;9.142;2023-02-26T18:10:37;0.20;99.90
46438;DHT22;32137;48.728;9.142;2023-02-26T18:13:03;0.20;99.90
46438;DHT22;32137;48.728;9.142;2023-02-26T18:15:28;0.20;99.90
46438;DHT22;32137;48.728;9.142;2023-02-26T18:17:54;0.10;99.90
46438;DHT22;32137;48.728;9.142;2023-02-26T18:20:21;0.10;99.90
46438;DHT22;32137;48.728;9.142;2023-02-26T18:22:47;0.00;99.90
46438;DHT22;32137;48.728;9.142;2023-02-26T18:25:13;0.00;99.90
46438;DHT22;32137;48.728;9.142;2023-02-26T18:27:40;-0.10;99.90
46438;DHT22;32137;48.728;9.142;2023-02-26T18:30:13;-0.10;99.90
46438;DHT22;32137;48.728;9.142;2023-02-26T18:32:40;-0.10;99.90
46438;DHT22;32137;48.728;9.142;2023-02-26T18:35:06;-0.10;99.90
46438;DHT22;32137;48.728;9.142;2023-02-26T18:37:32;-0.10;99.90
46438;DHT22;32137;48.728;9.142;2023-02-26T18:39:59;0.00;99.90
46438;DHT22;32137;48.728;9.142;2023-02-26T18:42:26;0.00;99.90
46438;DHT22;32137;48.728;9.142;2023-02-26T18:44:52;0.00;99.90
46438;DHT22;32137;48.728;9.142;2023-02-26T18:47:19;0.00;99.90
46438;DHT22;32137;48.728;9.142;2023-02-26T18:49:46;0.10;99.90